sensor_id;sensor_type;location;lat;lon;timestamp;P1;durP1;ratioP1;P2;durP2;ratioP2
31298;SDS011;17927;52.350;13.402;2023-11-18T00:00:50;4.45;;;4.15;;
31298;SDS011;17927;52.350;13.402;2023-11-18T00:03:15;4.45;;;4.15;;
31298;SDS011;17927;52.350;13.402;2023-11-18T00:05:41;5.40;;;4.90;;
31298;SDS011;17927;52.350;13.402;2023-11-18T00:08:06;5.18;;;4.78;;
31298;SDS011;17927;52.350;13.402;2023-11-18T00:10:31;4.63;;;4.20;;
31298;SDS011;17927;52.350;13.402;2023-11-18T00:12:56;4.32;;;4.03;;
31298;SDS011;17927;52.350;13.402;2023-11-18T00:15:22;5.18;;;4.78;;
31298;SDS011;17927;52.350;13.402;2023-11-18T00:17:47;5.47;;;4.63;;
31298;SDS011;17927;52.350;13.402;2023-11-18T00:20:12;4.72;;;4.35;;
31298;SDS011;17927;52.350;13.402;2023-11-18T00:22:39;5.30;;;4.90;;
31298;SDS011;17927;52.350;13.402;2023-11-18T00:25:04;4.57;;;4.28;;
31298;SDS011;17927;52.350;13.402;2023-11-18T00:27:32;4.95;;;4.45;;
31298;SDS011;17927;52.350;13.402;2023-11-18T00:29:57;5.38;;;4.72;;
31298;SDS011;17927;52.350;13.402;2023-11-18T00:32:23;4.85;;;4.45;;
31298;SDS011;17927;52.350;13.402;2023-11-18T00:34:48;6.10;;;5.60;;
31298;SDS011;17927;52.350;13.402;2023-11-18T00:37:13;4.95;;;4.65;;
31298;SDS011;17927;52.350;13.402;2023-11-18T00:39:38;5.10;;;4.75;;
31298;SDS011;17927;52.350;13.402;2023-11-18T00:42:04;5.43;;;5.03;;
31298;SDS011;17927;52.350;13.402;2023-11-18T00:44:30;6.80;;;5.45;;
31298;SDS011;17927;52.350;13.402;2023-11-18T00:46:55;5.65;;;5.07;;
31298;SDS011;17927;52.350;13.402;2023-11-18T00:49:22;5.72;;;5.32;;
31298;SDS011;17927;52.350;13.402;2023-11-18T00:51:47;6.53;;;5.97;;
31298;SDS011;17927;52.350;13.402;2023-11-18T00:54:13;5.85;;;5.30;;
31298;SDS011;17927;52.350;13.402;2023-11-18T00:56:38;5.47;;;5.05;;
31298;SDS011;17927;52.350;13.402;2023-11-18T00:59:03;5.72;;;5.32;;
31298;SDS011;17927;52.350;13.402;2023-11-18T01:01:28;5.32;;;4.93;;
31298;SDS011;17927;52.350;13.402;2023-11-18T01:03:54;5.63;;;5.22;;
31298;SDS011;17927;52.350;13.402;2023-11-18T01:06:19;5.75;;;5.15;;
31298;SDS011;17927;52.350;13.402;2023-11-18T01:08:47;5.47;;;4.95;;
31298;SDS011;17927;52.350;13.402;2023-11-18T01:11:19;5.72;;;5.32;;
31298;SDS011;17927;52.350;13.402;2023-11-18T01:13:45;5.38;;;4.97;;
31298;SDS011;17927;52.350;13.402;2023-11-18T01:16:11;5.22;;;4.82;;
31298;SDS011;17927;52.350;13.402;2023-11-18T01:18:38;5.45;;;5.05;;
31298;SDS011;17927;52.350;13.402;2023-11-18T01:21:04;4.95;;;4.60;;
31298;SDS011;17927;52.350;13.402;2023-11-18T01:23:29;5.95;;;5.45;;
31298;SDS011;17927;52.350;13.402;2023-11-18T01:25:54;6.07;;;5.68;;
31298;SDS011;17927;52.350;13.402;2023-11-18T01:28:21;6.53;;;5.28;;
31298;SDS011;17927;52.350;13.402;2023-11-18T01:30:46;5.97;;;5.47;;
31298;SDS011;17927;52.350;13.402;2023-11-18T01:33:11;6.57;;;5.97;;
31298;SDS011;17927;52.350;13.402;2023-11-18T01:35:37;7.30;;;6.07;;
31298;SDS011;17927;52.350;13.402;2023-11-18T01:38:03;6.70;;;5.57;;
31298;SDS011;17927;52.350;13.402;2023-11-18T01:40:30;8.50;;;5.95;;
31298;SDS011;17927;52.350;13.402;2023-11-18T01:42:56;5.88;;;5.47;;
31298;SDS011;17927;52.350;13.402;2023-11-18T01:45:21;6.18;;;5.57;;
31298;SDS011;17927;52.350;13.402;2023-11-18T01:47:47;5.93;;;5.53;;
31298;SDS011;17927;52.350;13.402;2023-11-18T01:50:13;6.55;;;5.95;;
31298;SDS011;17927;52.350;13.402;2023-11-18T01:52:39;6.05;;;5.18;;
31298;SDS011;17927;52.350;13.402;2023-11-18T01:55:06;6.30;;;5.70;;
31298;SDS011;17927;52.350;13.402;2023-11-18T01:57:32;5.30;;;4.85;;
31298;SDS011;17927;52.350;13.402;2023-11-18T01:59:58;5.53;;;5.03;;
31298;SDS011;17927;52.350;13.402;2023-11-18T02:02:25;5.88;;;5.28;;
31298;SDS011;17927;52.350;13.402;2023-11-18T02:04:51;5.82;;;5.32;;
31298;SDS011;17927;52.350;13.402;2023-11-18T02:07:16;6.13;;;5.57;;
31298;SDS011;17927;52.350;13.402;2023-11-18T02:09:42;5.32;;;4.93;;
31298;SDS011;17927;52.350;13.402;2023-11-18T02:12:16;5.63;;;5.22;;
31298;SDS011;17927;52.350;13.402;2023-11-18T02:14:51;5.88;;;5.28;;
31298;SDS011;17927;52.350;13.402;2023-11-18T02:17:21;5.53;;;5.13;;
31298;SDS011;17927;52.350;13.402;2023-11-18T02:19:53;5.32;;;4.80;;
31298;SDS011;17927;52.350;13.402;2023-11-18T02:22:20;5.55;;;5.15;;
31298;SDS011;17927;52.350;13.402;2023-11-18T02:24:47;6.18;;;4.78;;
31298;SDS011;17927;52.350;13.402;2023-11-18T02:27:12;5.65;;;5.15;;
31298;SDS011;17927;52.350;13.402;2023-11-18T02:29:42;5.53;;;5.03;;
31298;SDS011;17927;52.350;13.402;2023-11-18T02:32:18;5.40;;;5.00;;
31298;SDS011;17927;52.350;13.402;2023-11-18T02:34:50;6.30;;;5.70;;
31298;SDS011;17927;52.350;13.402;2023-11-18T02:37:35;6.25;;;5.70;;
31298;SDS011;17927;52.350;13.402;2023-11-18T02:40:03;7.35;;;5.93;;
31298;SDS011;17927;52.350;13.402;2023-11-18T02:42:33;6.10;;;5.60;;
31298;SDS011;17927;52.350;13.402;2023-11-18T02:45:02;5.78;;;5.28;;
31298;SDS011;17927;52.350;13.402;2023-11-18T02:47:28;6.15;;;5.65;;
31298;SDS011;17927;52.350;13.402;2023-11-18T02:49:54;7.60;;;5.35;;
31298;SDS011;17927;52.350;13.402;2023-11-18T02:52:21;6.25;;;5.63;;
31298;SDS011;17927;52.350;13.402;2023-11-18T02:54:47;4.93;;;4.53;;
31298;SDS011;17927;52.350;13.402;2023-11-18T02:57:12;6.72;;;6.22;;
31298;SDS011;17927;52.350;13.402;2023-11-18T02:59:39;5.85;;;5.38;;
31298;SDS011;17927;52.350;13.402;2023-11-18T03:02:04;6.00;;;5.50;;
31298;SDS011;17927;52.350;13.402;2023-11-18T03:04:31;6.28;;;5.35;;
31298;SDS011;17927;52.350;13.402;2023-11-18T03:06:56;6.35;;;5.75;;
31298;SDS011;17927;52.350;13.402;2023-11-18T03:09:21;6.38;;;5.65;;
31298;SDS011;17927;52.350;13.402;2023-11-18T03:11:46;9.57;;;5.38;;
31298;SDS011;17927;52.350;13.402;2023-11-18T03:14:12;6.15;;;5.47;;
31298;SDS011;17927;52.350;13.402;2023-11-18T03:16:37;5.38;;;4.85;;
31298;SDS011;17927;52.350;13.402;2023-11-18T03:19:03;5.57;;;5.07;;
31298;SDS011;17927;52.350;13.402;2023-11-18T03:21:29;5.18;;;4.78;;
31298;SDS011;17927;52.350;13.402;2023-11-18T03:23:55;5.38;;;4.97;;
31298;SDS011;17927;52.350;13.402;2023-11-18T03:26:20;5.68;;;5.22;;
31298;SDS011;17927;52.350;13.402;2023-11-18T03:28:46;5.63;;;5.18;;
31298;SDS011;17927;52.350;13.402;2023-11-18T03:31:11;5.22;;;4.82;;
31298;SDS011;17927;52.350;13.402;2023-11-18T03:33:37;5.13;;;4.72;;
31298;SDS011;17927;52.350;13.402;2023-11-18T03:36:02;5.80;;;5.35;;
31298;SDS011;17927;52.350;13.402;2023-11-18T03:38:28;5.57;;;5.07;;
31298;SDS011;17927;52.350;13.402;2023-11-18T03:40:53;5.50;;;5.07;;
31298;SDS011;17927;52.350;13.402;2023-11-18T03:43:19;6.68;;;5.18;;
31298;SDS011;17927;52.350;13.402;2023-11-18T03:45:44;5.25;;;4.80;;
31298;SDS011;17927;52.350;13.402;2023-11-18T03:48:10;5.40;;;5.00;;
31298;SDS011;17927;52.350;13.402;2023-11-18T03:50:39;4.43;;;4.13;;
31298;SDS011;17927;52.350;13.402;2023-11-18T03:53:04;5.88;;;4.47;;
31298;SDS011;17927;52.350;13.402;2023-11-18T03:55:30;4.80;;;4.38;;
31298;SDS011;17927;52.350;13.402;2023-11-18T03:57:55;4.70;;;4.30;;
31298;SDS011;17927;52.350;13.402;2023-11-18T04:00:22;6.97;;;3.83;;
31298;SDS011;17927;52.350;13.402;2023-11-18T04:02:47;5.32;;;4.82;;
31298;SDS011;17927;52.350;13.402;2023-11-18T04:05:13;5.18;;;4.78;;
31298;SDS011;17927;52.350;13.402;2023-11-18T04:07:38;5.43;;;4.80;;
31298;SDS011;17927;52.350;13.402;2023-11-18T04:10:07;4.68;;;4.28;;
31298;SDS011;17927;52.350;13.402;2023-11-18T04:12:35;5.50;;;4.15;;
31298;SDS011;17927;52.350;13.402;2023-11-18T04:15:00;5.07;;;4.60;;
31298;SDS011;17927;52.350;13.402;2023-11-18T04:17:25;6.15;;;4.82;;
31298;SDS011;17927;52.350;13.402;2023-11-18T04:19:53;8.70;;;4.78;;
31298;SDS011;17927;52.350;13.402;2023-11-18T04:22:20;4.72;;;4.30;;
31298;SDS011;17927;52.350;13.402;2023-11-18T04:24:46;5.30;;;4.90;;
31298;SDS011;17927;52.350;13.402;2023-11-18T04:27:12;6.13;;;5.55;;
31298;SDS011;17927;52.350;13.402;2023-11-18T04:29:37;6.07;;;5.45;;
31298;SDS011;17927;52.350;13.402;2023-11-18T04:32:03;5.03;;;4.63;;
31298;SDS011;17927;52.350;13.402;2023-11-18T04:34:28;6.18;;;4.88;;
31298;SDS011;17927;52.350;13.402;2023-11-18T04:36:54;5.47;;;4.97;;
31298;SDS011;17927;52.350;13.402;2023-11-18T04:39:19;6.05;;;4.93;;
31298;SDS011;17927;52.350;13.402;2023-11-18T04:41:46;7.22;;;5.25;;
31298;SDS011;17927;52.350;13.402;2023-11-18T04:44:11;5.15;;;4.75;;
31298;SDS011;17927;52.350;13.402;2023-11-18T04:46:36;6.10;;;5.55;;
31298;SDS011;17927;52.350;13.402;2023-11-18T04:49:02;6.25;;;5.75;;
31298;SDS011;17927;52.350;13.402;2023-11-18T04:51:27;5.68;;;5.18;;
31298;SDS011;17927;52.350;13.402;2023-11-18T04:53:52;6.22;;;5.70;;
31298;SDS011;17927;52.350;13.402;2023-11-18T04:56:17;6.40;;;5.90;;
31298;SDS011;17927;52.350;13.402;2023-11-18T04:58:43;6.07;;;5.57;;
31298;SDS011;17927;52.350;13.402;2023-11-18T05:01:11;7.15;;;6.50;;
31298;SDS011;17927;52.350;13.402;2023-11-18T05:03:37;6.07;;;5.53;;
31298;SDS011;17927;52.350;13.402;2023-11-18T05:06:03;6.78;;;6.25;;
31298;SDS011;17927;52.350;13.402;2023-11-18T05:08:29;6.63;;;6.03;;
31298;SDS011;17927;52.350;13.402;2023-11-18T05:10:55;7.80;;;5.88;;
31298;SDS011;17927;52.350;13.402;2023-11-18T05:13:22;6.50;;;5.93;;
31298;SDS011;17927;52.350;13.402;2023-11-18T05:15:48;6.80;;;6.20;;
31298;SDS011;17927;52.350;13.402;2023-11-18T05:18:14;7.53;;;6.28;;
31298;SDS011;17927;52.350;13.402;2023-11-18T05:20:40;6.35;;;5.60;;
31298;SDS011;17927;52.350;13.402;2023-11-18T05:23:07;6.60;;;5.90;;
31298;SDS011;17927;52.350;13.402;2023-11-18T05:25:35;6.82;;;5.97;;
31298;SDS011;17927;52.350;13.402;2023-11-18T05:28:08;7.32;;;6.10;;
31298;SDS011;17927;52.350;13.402;2023-11-18T05:30:37;6.97;;;6.28;;
31298;SDS011;17927;52.350;13.402;2023-11-18T05:33:05;7.35;;;6.65;;
31298;SDS011;17927;52.350;13.402;2023-11-18T05:35:31;7.47;;;6.47;;
31298;SDS011;17927;52.350;13.402;2023-11-18T05:37:57;6.47;;;5.90;;
31298;SDS011;17927;52.350;13.402;2023-11-18T05:40:23;6.07;;;5.57;;
31298;SDS011;17927;52.350;13.402;2023-11-18T05:42:50;6.97;;;6.15;;
31298;SDS011;17927;52.350;13.402;2023-11-18T05:45:16;5.97;;;5.47;;
31298;SDS011;17927;52.350;13.402;2023-11-18T05:47:56;6.38;;;5.78;;
31298;SDS011;17927;52.350;13.402;2023-11-18T05:50:23;6.55;;;5.95;;
31298;SDS011;17927;52.350;13.402;2023-11-18T05:52:51;8.45;;;5.63;;
31298;SDS011;17927;52.350;13.402;2023-11-18T05:55:18;6.05;;;5.40;;
31298;SDS011;17927;52.350;13.402;2023-11-18T05:57:43;6.03;;;5.53;;
31298;SDS011;17927;52.350;13.402;2023-11-18T06:00:10;7.00;;;5.53;;
31298;SDS011;17927;52.350;13.402;2023-11-18T06:02:44;5.93;;;5.32;;
31298;SDS011;17927;52.350;13.402;2023-11-18T06:05:09;4.80;;;4.50;;
31298;SDS011;17927;52.350;13.402;2023-11-18T06:07:37;5.68;;;5.22;;
31298;SDS011;17927;52.350;13.402;2023-11-18T06:10:05;5.80;;;5.25;;
31298;SDS011;17927;52.350;13.402;2023-11-18T06:12:31;5.60;;;5.10;;
31298;SDS011;17927;52.350;13.402;2023-11-18T06:14:57;6.68;;;5.57;;
31298;SDS011;17927;52.350;13.402;2023-11-18T06:17:22;6.03;;;5.53;;
31298;SDS011;17927;52.350;13.402;2023-11-18T06:19:48;5.75;;;5.25;;
31298;SDS011;17927;52.350;13.402;2023-11-18T06:22:14;5.68;;;5.28;;
31298;SDS011;17927;52.350;13.402;2023-11-18T06:24:40;5.32;;;4.72;;
31298;SDS011;17927;52.350;13.402;2023-11-18T06:27:05;5.93;;;5.43;;
31298;SDS011;17927;52.350;13.402;2023-11-18T06:29:33;5.50;;;5.00;;
31298;SDS011;17927;52.350;13.402;2023-11-18T06:31:58;6.38;;;5.38;;
31298;SDS011;17927;52.350;13.402;2023-11-18T06:34:24;5.65;;;5.13;;
31298;SDS011;17927;52.350;13.402;2023-11-18T06:36:51;9.13;;;7.53;;
31298;SDS011;17927;52.350;13.402;2023-11-18T06:39:16;6.55;;;5.90;;
31298;SDS011;17927;52.350;13.402;2023-11-18T06:41:44;6.88;;;6.28;;
31298;SDS011;17927;52.350;13.402;2023-11-18T06:44:14;8.82;;;6.25;;
31298;SDS011;17927;52.350;13.402;2023-11-18T06:46:43;6.03;;;5.43;;
31298;SDS011;17927;52.350;13.402;2023-11-18T06:49:09;5.85;;;5.35;;
31298;SDS011;17927;52.350;13.402;2023-11-18T06:51:35;5.82;;;5.30;;
31298;SDS011;17927;52.350;13.402;2023-11-18T06:54:02;6.93;;;6.32;;
31298;SDS011;17927;52.350;13.402;2023-11-18T06:56:33;6.55;;;5.95;;
31298;SDS011;17927;52.350;13.402;2023-11-18T06:59:01;7.18;;;5.38;;
31298;SDS011;17927;52.350;13.402;2023-11-18T07:01:26;5.93;;;5.43;;
31298;SDS011;17927;52.350;13.402;2023-11-18T07:03:52;6.15;;;5.63;;
31298;SDS011;17927;52.350;13.402;2023-11-18T07:06:18;6.03;;;5.43;;
31298;SDS011;17927;52.350;13.402;2023-11-18T07:08:50;6.78;;;6.03;;
31298;SDS011;17927;52.350;13.402;2023-11-18T07:11:16;7.38;;;6.53;;
31298;SDS011;17927;52.350;13.402;2023-11-18T07:13:42;6.50;;;5.63;;
31298;SDS011;17927;52.350;13.402;2023-11-18T07:16:08;6.07;;;5.32;;
31298;SDS011;17927;52.350;13.402;2023-11-18T07:18:34;6.63;;;5.95;;
31298;SDS011;17927;52.350;13.402;2023-11-18T07:20:59;6.63;;;6.03;;
31298;SDS011;17927;52.350;13.402;2023-11-18T07:23:25;7.82;;;5.90;;
31298;SDS011;17927;52.350;13.402;2023-11-18T07:25:51;7.07;;;6.28;;
31298;SDS011;17927;52.350;13.402;2023-11-18T07:28:16;6.78;;;5.85;;
31298;SDS011;17927;52.350;13.402;2023-11-18T07:30:42;5.88;;;5.40;;
31298;SDS011;17927;52.350;13.402;2023-11-18T07:33:12;7.50;;;6.60;;
31298;SDS011;17927;52.350;13.402;2023-11-18T07:35:37;6.85;;;6.15;;
31298;SDS011;17927;52.350;13.402;2023-11-18T07:38:03;7.10;;;6.10;;
31298;SDS011;17927;52.350;13.402;2023-11-18T07:40:28;7.93;;;6.25;;
31298;SDS011;17927;52.350;13.402;2023-11-18T07:42:54;8.32;;;7.43;;
31298;SDS011;17927;52.350;13.402;2023-11-18T07:45:20;6.82;;;6.22;;
31298;SDS011;17927;52.350;13.402;2023-11-18T07:47:48;8.05;;;6.95;;
31298;SDS011;17927;52.350;13.402;2023-11-18T07:50:14;8.02;;;6.97;;
31298;SDS011;17927;52.350;13.402;2023-11-18T07:52:41;8.15;;;6.70;;
31298;SDS011;17927;52.350;13.402;2023-11-18T07:55:06;7.65;;;6.90;;
31298;SDS011;17927;52.350;13.402;2023-11-18T07:57:33;8.07;;;6.80;;
31298;SDS011;17927;52.350;13.402;2023-11-18T08:00:01;8.80;;;7.35;;
31298;SDS011;17927;52.350;13.402;2023-11-18T08:02:33;8.20;;;6.47;;
31298;SDS011;17927;52.350;13.402;2023-11-18T08:05:00;6.93;;;6.25;;
31298;SDS011;17927;52.350;13.402;2023-11-18T08:07:27;7.00;;;6.35;;
31298;SDS011;17927;52.350;13.402;2023-11-18T08:09:53;12.65;;;6.65;;
31298;SDS011;17927;52.350;13.402;2023-11-18T08:12:18;7.45;;;6.65;;
31298;SDS011;17927;52.350;13.402;2023-11-18T08:14:44;7.10;;;5.68;;
31298;SDS011;17927;52.350;13.402;2023-11-18T08:17:09;6.50;;;5.90;;
31298;SDS011;17927;52.350;13.402;2023-11-18T08:19:34;6.57;;;5.82;;
31298;SDS011;17927;52.350;13.402;2023-11-18T08:22:00;6.47;;;5.88;;
31298;SDS011;17927;52.350;13.402;2023-11-18T08:24:26;7.05;;;5.88;;
31298;SDS011;17927;52.350;13.402;2023-11-18T08:26:51;7.00;;;6.30;;
31298;SDS011;17927;52.350;13.402;2023-11-18T08:29:16;6.22;;;5.63;;
31298;SDS011;17927;52.350;13.402;2023-11-18T08:31:42;5.97;;;5.47;;
31298;SDS011;17927;52.350;13.402;2023-11-18T08:34:09;6.97;;;6.32;;
31298;SDS011;17927;52.350;13.402;2023-11-18T08:36:35;5.68;;;5.18;;
31298;SDS011;17927;52.350;13.402;2023-11-18T08:39:00;5.47;;;5.00;;
31298;SDS011;17927;52.350;13.402;2023-11-18T08:41:25;5.90;;;5.40;;
31298;SDS011;17927;52.350;13.402;2023-11-18T08:43:51;6.18;;;5.57;;
31298;SDS011;17927;52.350;13.402;2023-11-18T08:46:17;6.38;;;5.70;;
31298;SDS011;17927;52.350;13.402;2023-11-18T08:48:42;6.60;;;5.43;;
31298;SDS011;17927;52.350;13.402;2023-11-18T08:51:09;5.88;;;5.28;;
31298;SDS011;17927;52.350;13.402;2023-11-18T08:53:34;10.60;;;7.82;;
31298;SDS011;17927;52.350;13.402;2023-11-18T08:56:07;16.20;;;12.10;;
31298;SDS011;17927;52.350;13.402;2023-11-18T08:58:38;14.38;;;10.15;;
31298;SDS011;17927;52.350;13.402;2023-11-18T09:01:05;6.97;;;6.28;;
31298;SDS011;17927;52.350;13.402;2023-11-18T09:03:38;6.35;;;5.75;;
31298;SDS011;17927;52.350;13.402;2023-11-18T09:06:08;5.85;;;5.32;;
31298;SDS011;17927;52.350;13.402;2023-11-18T09:08:44;5.93;;;5.32;;
31298;SDS011;17927;52.350;13.402;2023-11-18T09:11:14;6.43;;;5.53;;
31298;SDS011;17927;52.350;13.402;2023-11-18T09:13:41;7.30;;;5.32;;
31298;SDS011;17927;52.350;13.402;2023-11-18T09:16:08;6.45;;;5.40;;
31298;SDS011;17927;52.350;13.402;2023-11-18T09:18:34;6.78;;;5.72;;
31298;SDS011;17927;52.350;13.402;2023-11-18T09:21:04;7.75;;;5.55;;
31298;SDS011;17927;52.350;13.402;2023-11-18T09:23:32;5.88;;;5.22;;
31298;SDS011;17927;52.350;13.402;2023-11-18T09:25:59;6.25;;;5.45;;
31298;SDS011;17927;52.350;13.402;2023-11-18T09:28:26;5.50;;;5.00;;
31298;SDS011;17927;52.350;13.402;2023-11-18T09:30:55;6.25;;;5.65;;
31298;SDS011;17927;52.350;13.402;2023-11-18T09:33:25;6.65;;;5.40;;
31298;SDS011;17927;52.350;13.402;2023-11-18T09:35:56;6.03;;;5.40;;
31298;SDS011;17927;52.350;13.402;2023-11-18T09:38:28;6.28;;;5.60;;
31298;SDS011;17927;52.350;13.402;2023-11-18T09:40:54;5.60;;;5.10;;
31298;SDS011;17927;52.350;13.402;2023-11-18T09:43:23;5.18;;;4.78;;
31298;SDS011;17927;52.350;13.402;2023-11-18T09:45:50;6.00;;;5.10;;
31298;SDS011;17927;52.350;13.402;2023-11-18T09:48:20;6.22;;;5.05;;
31298;SDS011;17927;52.350;13.402;2023-11-18T09:50:50;5.60;;;4.88;;
31298;SDS011;17927;52.350;13.402;2023-11-18T09:53:17;5.35;;;4.90;;
31298;SDS011;17927;52.350;13.402;2023-11-18T09:55:52;4.82;;;4.32;;
31298;SDS011;17927;52.350;13.402;2023-11-18T09:58:25;5.53;;;4.97;;
31298;SDS011;17927;52.350;13.402;2023-11-18T10:01:06;8.25;;;4.30;;
31298;SDS011;17927;52.350;13.402;2023-11-18T10:03:31;5.55;;;4.60;;
31298;SDS011;17927;52.350;13.402;2023-11-18T10:05:58;7.15;;;5.95;;
31298;SDS011;17927;52.350;13.402;2023-11-18T10:08:29;9.10;;;6.40;;
31298;SDS011;17927;52.350;13.402;2023-11-18T10:10:55;7.40;;;6.60;;
31298;SDS011;17927;52.350;13.402;2023-11-18T10:13:30;9.52;;;6.90;;
31298;SDS011;17927;52.350;13.402;2023-11-18T10:15:59;6.80;;;6.20;;
31298;SDS011;17927;52.350;13.402;2023-11-18T10:18:24;8.10;;;7.30;;
31298;SDS011;17927;52.350;13.402;2023-11-18T10:20:50;7.88;;;7.07;;
31298;SDS011;17927;52.350;13.402;2023-11-18T10:23:17;9.02;;;7.10;;
31298;SDS011;17927;52.350;13.402;2023-11-18T10:28:26;6.95;;;6.25;;
31298;SDS011;17927;52.350;13.402;2023-11-18T10:30:55;6.97;;;5.78;;
31298;SDS011;17927;52.350;13.402;2023-11-18T10:33:28;7.32;;;5.60;;
31298;SDS011;17927;52.350;13.402;2023-11-18T10:35:55;5.85;;;5.25;;
31298;SDS011;17927;52.350;13.402;2023-11-18T10:38:21;8.07;;;6.28;;
31298;SDS011;17927;52.350;13.402;2023-11-18T10:40:54;6.10;;;5.50;;
31298;SDS011;17927;52.350;13.402;2023-11-18T10:43:23;5.80;;;5.22;;
31298;SDS011;17927;52.350;13.402;2023-11-18T10:45:50;6.97;;;5.75;;
31298;SDS011;17927;52.350;13.402;2023-11-18T10:48:17;7.03;;;6.13;;
31298;SDS011;17927;52.350;13.402;2023-11-18T10:50:45;9.82;;;7.25;;
31298;SDS011;17927;52.350;13.402;2023-11-18T10:53:13;9.23;;;7.28;;
31298;SDS011;17927;52.350;13.402;2023-11-18T10:55:40;13.35;;;7.93;;
31298;SDS011;17927;52.350;13.402;2023-11-18T10:58:05;9.60;;;7.93;;
31298;SDS011;17927;52.350;13.402;2023-11-18T11:00:45;12.38;;;8.63;;
31298;SDS011;17927;52.350;13.402;2023-11-18T11:03:13;10.18;;;7.97;;
31298;SDS011;17927;52.350;13.402;2023-11-18T11:05:39;13.15;;;8.85;;
31298;SDS011;17927;52.350;13.402;2023-11-18T11:08:07;11.63;;;9.23;;
31298;SDS011;17927;52.350;13.402;2023-11-18T11:10:33;11.60;;;7.75;;
31298;SDS011;17927;52.350;13.402;2023-11-18T11:13:01;12.40;;;8.48;;
31298;SDS011;17927;52.350;13.402;2023-11-18T11:15:30;11.98;;;8.15;;
31298;SDS011;17927;52.350;13.402;2023-11-18T11:18:04;12.65;;;8.88;;
31298;SDS011;17927;52.350;13.402;2023-11-18T11:20:47;11.02;;;8.32;;
31298;SDS011;17927;52.350;13.402;2023-11-18T11:34:47;17.02;;;10.75;;
31298;SDS011;17927;52.350;13.402;2023-11-18T11:37:18;22.83;;;14.32;;
31298;SDS011;17927;52.350;13.402;2023-11-18T11:39:48;17.93;;;10.33;;
31298;SDS011;17927;52.350;13.402;2023-11-18T11:42:18;16.92;;;10.68;;
31298;SDS011;17927;52.350;13.402;2023-11-18T11:44:45;15.75;;;10.20;;
31298;SDS011;17927;52.350;13.402;2023-11-18T11:47:12;15.10;;;10.18;;
31298;SDS011;17927;52.350;13.402;2023-11-18T11:49:52;15.38;;;9.68;;
31298;SDS011;17927;52.350;13.402;2023-11-18T11:52:26;14.80;;;10.70;;
31298;SDS011;17927;52.350;13.402;2023-11-18T11:54:56;36.42;;;23.73;;
31298;SDS011;17927;52.350;13.402;2023-11-18T11:57:31;21.77;;;13.93;;
31298;SDS011;17927;52.350;13.402;2023-11-18T12:00:02;17.30;;;10.02;;
31298;SDS011;17927;52.350;13.402;2023-11-18T12:02:39;16.48;;;9.80;;
31298;SDS011;17927;52.350;13.402;2023-11-18T12:05:05;15.65;;;9.68;;
31298;SDS011;17927;52.350;13.402;2023-11-18T12:07:32;22.48;;;14.65;;
31298;SDS011;17927;52.350;13.402;2023-11-18T12:10:05;25.55;;;14.93;;
31298;SDS011;17927;52.350;13.402;2023-11-18T12:12:38;13.70;;;9.95;;
31298;SDS011;17927;52.350;13.402;2023-11-18T12:15:04;13.50;;;9.23;;
31298;SDS011;17927;52.350;13.402;2023-11-18T12:23:07;12.60;;;9.00;;
31298;SDS011;17927;52.350;13.402;2023-11-18T12:25:46;11.73;;;7.80;;
31298;SDS011;17927;52.350;13.402;2023-11-18T12:28:15;9.27;;;7.05;;
31298;SDS011;17927;52.350;13.402;2023-11-18T12:30:41;12.43;;;9.25;;
31298;SDS011;17927;52.350;13.402;2023-11-18T12:33:20;10.85;;;7.95;;
31298;SDS011;17927;52.350;13.402;2023-11-18T12:35:55;11.93;;;8.13;;
31298;SDS011;17927;52.350;13.402;2023-11-18T12:41:37;7.70;;;6.82;;
31298;SDS011;17927;52.350;13.402;2023-11-18T12:46:59;8.32;;;6.90;;
31298;SDS011;17927;52.350;13.402;2023-11-18T12:49:37;9.48;;;7.97;;
31298;SDS011;17927;52.350;13.402;2023-11-18T12:52:06;10.48;;;8.30;;
31298;SDS011;17927;52.350;13.402;2023-11-18T12:54:33;10.27;;;8.38;;
31298;SDS011;17927;52.350;13.402;2023-11-18T12:57:02;9.55;;;8.10;;
31298;SDS011;17927;52.350;13.402;2023-11-18T12:59:28;8.35;;;7.18;;
31298;SDS011;17927;52.350;13.402;2023-11-18T13:01:55;9.05;;;6.75;;
31298;SDS011;17927;52.350;13.402;2023-11-18T13:04:23;7.57;;;6.78;;
31298;SDS011;17927;52.350;13.402;2023-11-18T13:06:49;8.57;;;6.60;;
31298;SDS011;17927;52.350;13.402;2023-11-18T13:09:16;7.18;;;6.45;;
31298;SDS011;17927;52.350;13.402;2023-11-18T13:11:53;12.13;;;8.60;;
31298;SDS011;17927;52.350;13.402;2023-11-18T13:16:46;7.50;;;6.75;;
31298;SDS011;17927;52.350;13.402;2023-11-18T13:19:12;6.65;;;5.95;;
31298;SDS011;17927;52.350;13.402;2023-11-18T13:21:48;6.30;;;5.70;;
31298;SDS011;17927;52.350;13.402;2023-11-18T13:24:13;6.13;;;4.97;;
31298;SDS011;17927;52.350;13.402;2023-11-18T13:26:38;5.95;;;5.35;;
31298;SDS011;17927;52.350;13.402;2023-11-18T13:29:04;6.22;;;4.85;;
31298;SDS011;17927;52.350;13.402;2023-11-18T13:31:31;6.35;;;5.07;;
31298;SDS011;17927;52.350;13.402;2023-11-18T13:33:56;5.65;;;5.13;;
31298;SDS011;17927;52.350;13.402;2023-11-18T13:36:22;5.57;;;5.07;;
31298;SDS011;17927;52.350;13.402;2023-11-18T13:38:49;10.35;;;8.25;;
31298;SDS011;17927;52.350;13.402;2023-11-18T13:41:27;7.28;;;6.57;;
31298;SDS011;17927;52.350;13.402;2023-11-18T13:43:56;8.00;;;6.60;;
31298;SDS011;17927;52.350;13.402;2023-11-18T13:46:23;7.47;;;6.80;;
31298;SDS011;17927;52.350;13.402;2023-11-18T13:48:49;6.70;;;6.10;;
31298;SDS011;17927;52.350;13.402;2023-11-18T13:51:14;7.93;;;5.55;;
31298;SDS011;17927;52.350;13.402;2023-11-18T13:53:40;6.30;;;5.32;;
31298;SDS011;17927;52.350;13.402;2023-11-18T13:56:08;6.30;;;5.78;;
31298;SDS011;17927;52.350;13.402;2023-11-18T13:58:35;8.40;;;6.22;;
31298;SDS011;17927;52.350;13.402;2023-11-18T14:01:04;7.10;;;6.40;;
31298;SDS011;17927;52.350;13.402;2023-11-18T14:03:31;7.93;;;6.45;;
31298;SDS011;17927;52.350;13.402;2023-11-18T14:05:57;7.55;;;6.85;;
31298;SDS011;17927;52.350;13.402;2023-11-18T14:08:23;6.78;;;5.85;;
31298;SDS011;17927;52.350;13.402;2023-11-18T14:10:49;6.70;;;6.03;;
31298;SDS011;17927;52.350;13.402;2023-11-18T14:13:16;6.22;;;5.63;;
31298;SDS011;17927;52.350;13.402;2023-11-18T14:15:42;7.25;;;5.97;;
31298;SDS011;17927;52.350;13.402;2023-11-18T14:18:08;6.65;;;6.00;;
31298;SDS011;17927;52.350;13.402;2023-11-18T14:20:34;6.38;;;5.78;;
31298;SDS011;17927;52.350;13.402;2023-11-18T14:23:00;10.00;;;7.32;;
31298;SDS011;17927;52.350;13.402;2023-11-18T14:25:26;7.97;;;7.18;;
31298;SDS011;17927;52.350;13.402;2023-11-18T14:27:52;7.40;;;6.63;;
31298;SDS011;17927;52.350;13.402;2023-11-18T14:30:18;9.48;;;7.85;;
31298;SDS011;17927;52.350;13.402;2023-11-18T14:32:44;10.25;;;8.18;;
31298;SDS011;17927;52.350;13.402;2023-11-18T14:35:11;10.05;;;7.97;;
31298;SDS011;17927;52.350;13.402;2023-11-18T14:37:41;33.72;;;20.08;;
31298;SDS011;17927;52.350;13.402;2023-11-18T14:40:10;25.58;;;14.80;;
31298;SDS011;17927;52.350;13.402;2023-11-18T14:42:38;17.42;;;13.48;;
31298;SDS011;17927;52.350;13.402;2023-11-18T14:45:04;16.67;;;12.65;;
31298;SDS011;17927;52.350;13.402;2023-11-18T14:47:31;18.80;;;12.20;;
31298;SDS011;17927;52.350;13.402;2023-11-18T14:49:57;19.50;;;12.43;;
31298;SDS011;17927;52.350;13.402;2023-11-18T14:52:22;29.13;;;16.00;;
31298;SDS011;17927;52.350;13.402;2023-11-18T14:54:47;22.33;;;13.55;;
31298;SDS011;17927;52.350;13.402;2023-11-18T14:57:12;18.27;;;11.75;;
31298;SDS011;17927;52.350;13.402;2023-11-18T14:59:38;15.60;;;9.98;;